Ana Sayfa
METAR-TAF:

METAR-TAF

Havaalanları :

Carlsbad, New Mexico, Amerika Birleşik Devletleri

Enlem: 32-20-15N, Boylam: 104-15-48W, yükseklik: 1004 m

Güncel hava durumu gözlemi

Rapor saat 18:53 UTC de 52 dakika önce yapıldı.
Rüzgar güney/güneydoğudan 15 kt ve 23 kt'a kadar ani rüzgarlar
Sıcaklık 37°C
Nem 18%
Basınç 1015 hPa
Görüş mesafesi: 16.1 km
Açık gökyüzü

METAR: KCNM 051853Z AUTO 15015G23KT 10SM CLR 37/09 A2996 RMK AO2 SLP075 T03670094

Saat: 13:45 (19:45 UTC)

Tahmin

Rapor saat 17:20 UTC de 2 saat ve 25 dakika önce yapıldı.
Ayın 05'si saat 18 UTC'den ayın 06'si saat 18 UTC'ye kadar geçerli Tahmin
Rüzgar güneydoğudan 17 kt ve 25 kt'a kadar ani rüzgarlar
Görüş mesafesi: 10 km
25000 ft yükseklikte az bulutlu
Ayın 06'si saat 0700 UTC'den
Rüzgar güney/güneydoğudan 11 kt
Görüş mesafesi: 10 km
Açık gökyüzü

TAF: KCNM 051720Z 0518/0618 14017G25KT P6SM FEW250 FM060700 15011KT P6SM SKC

4.000'den fazla havaalanı için hava durumu gözlemleri ve tahminleri (METAR ve TAF raporları).

Kullanılabilir istasyonlar harita üzerinde sarı ve kırmızı noktalarla gösterilir.

İstasyonun adını görmek için fareyi noktanın üzerinde gezdirin.

Sonrasında hava gözlem ve tahminlerini görmek için tıklayın.

Haritayı değiştirmek için: yaklaştırmak için siyah artı işaretli yeşil düğmeye ve uzaklaştırmak için de eksi işaretli düğmeye hızla tıklayın; bitişik haritalar için yeşil okları kullanın.


METAR-TAF: